sensor_id;sensor_type;location;lat;lon;timestamp;P1;durP1;ratioP1;P2;durP2;ratioP2
71648;SDS011;70112;45.624;11.760;2023-12-28T00:02:02;103.20;;;69.10;;
71648;SDS011;70112;45.624;11.760;2023-12-28T00:04:28;111.50;;;70.30;;
71648;SDS011;70112;45.624;11.760;2023-12-28T00:06:57;111.60;;;70.40;;
71648;SDS011;70112;45.624;11.760;2023-12-28T00:09:22;105.80;;;69.60;;
71648;SDS011;70112;45.624;11.760;2023-12-28T00:11:48;100.40;;;64.80;;
71648;SDS011;70112;45.624;11.760;2023-12-28T00:14:16;98.00;;;66.30;;
71648;SDS011;70112;45.624;11.760;2023-12-28T00:16:47;97.90;;;63.70;;
71648;SDS011;70112;45.624;11.760;2023-12-28T00:19:13;96.60;;;63.50;;
71648;SDS011;70112;45.624;11.760;2023-12-28T00:22:07;97.90;;;63.30;;
71648;SDS011;70112;45.624;11.760;2023-12-28T00:24:34;98.30;;;64.00;;
71648;SDS011;70112;45.624;11.760;2023-12-28T00:27:05;102.80;;;64.50;;
71648;SDS011;70112;45.624;11.760;2023-12-28T00:29:30;109.60;;;67.30;;
71648;SDS011;70112;45.624;11.760;2023-12-28T00:32:07;99.50;;;65.70;;
71648;SDS011;70112;45.624;11.760;2023-12-28T00:34:35;98.60;;;63.30;;
71648;SDS011;70112;45.624;11.760;2023-12-28T00:37:01;91.90;;;63.10;;
71648;SDS011;70112;45.624;11.760;2023-12-28T00:39:30;100.70;;;63.90;;
71648;SDS011;70112;45.624;11.760;2023-12-28T00:42:04;97.20;;;64.80;;
71648;SDS011;70112;45.624;11.760;2023-12-28T00:44:30;90.00;;;61.70;;
71648;SDS011;70112;45.624;11.760;2023-12-28T00:46:58;93.80;;;62.30;;
71648;SDS011;70112;45.624;11.760;2023-12-28T00:49:36;97.20;;;61.50;;
71648;SDS011;70112;45.624;11.760;2023-12-28T00:52:02;94.10;;;60.90;;
71648;SDS011;70112;45.624;11.760;2023-12-28T00:54:28;96.70;;;62.40;;
71648;SDS011;70112;45.624;11.760;2023-12-28T00:56:54;95.90;;;63.20;;
71648;SDS011;70112;45.624;11.760;2023-12-28T00:59:25;96.40;;;62.00;;
71648;SDS011;70112;45.624;11.760;2023-12-28T01:01:51;92.40;;;60.70;;
71648;SDS011;70112;45.624;11.760;2023-12-28T01:04:30;84.30;;;59.20;;
71648;SDS011;70112;45.624;11.760;2023-12-28T01:06:56;93.00;;;60.10;;
71648;SDS011;70112;45.624;11.760;2023-12-28T01:09:32;93.20;;;62.10;;
71648;SDS011;70112;45.624;11.760;2023-12-28T01:11:59;96.80;;;59.00;;
71648;SDS011;70112;45.624;11.760;2023-12-28T01:14:24;90.50;;;58.90;;
71648;SDS011;70112;45.624;11.760;2023-12-28T01:16:52;89.60;;;60.80;;
71648;SDS011;70112;45.624;11.760;2023-12-28T01:19:18;91.70;;;61.20;;
71648;SDS011;70112;45.624;11.760;2023-12-28T01:22:08;85.80;;;59.80;;
71648;SDS011;70112;45.624;11.760;2023-12-28T01:24:54;84.60;;;57.90;;
71648;SDS011;70112;45.624;11.760;2023-12-28T01:27:22;90.80;;;59.50;;
71648;SDS011;70112;45.624;11.760;2023-12-28T01:30:12;88.50;;;61.30;;
71648;SDS011;70112;45.624;11.760;2023-12-28T01:33:02;84.40;;;57.80;;
71648;SDS011;70112;45.624;11.760;2023-12-28T01:35:48;88.40;;;60.60;;
71648;SDS011;70112;45.624;11.760;2023-12-28T01:38:16;88.70;;;60.60;;
71648;SDS011;70112;45.624;11.760;2023-12-28T01:40:46;89.50;;;59.50;;
71648;SDS011;70112;45.624;11.760;2023-12-28T01:43:23;84.00;;;57.80;;
71648;SDS011;70112;45.624;11.760;2023-12-28T01:45:54;85.30;;;58.50;;
71648;SDS011;70112;45.624;11.760;2023-12-28T01:48:20;90.40;;;58.50;;
71648;SDS011;70112;45.624;11.760;2023-12-28T01:50:49;83.70;;;57.40;;
71648;SDS011;70112;45.624;11.760;2023-12-28T01:53:15;81.30;;;56.60;;
71648;SDS011;70112;45.624;11.760;2023-12-28T01:55:41;78.20;;;55.60;;
71648;SDS011;70112;45.624;11.760;2023-12-28T01:58:10;81.10;;;55.30;;
71648;SDS011;70112;45.624;11.760;2023-12-28T02:00:36;81.10;;;57.20;;
71648;SDS011;70112;45.624;11.760;2023-12-28T02:03:06;74.70;;;54.60;;
71648;SDS011;70112;45.624;11.760;2023-12-28T02:08:55;77.30;;;53.50;;
71648;SDS011;70112;45.624;11.760;2023-12-28T02:11:42;79.40;;;54.60;;
71648;SDS011;70112;45.624;11.760;2023-12-28T02:15:12;75.60;;;52.90;;
71648;SDS011;70112;45.624;11.760;2023-12-28T02:17:43;71.60;;;52.40;;
71648;SDS011;70112;45.624;11.760;2023-12-28T02:20:14;71.60;;;53.00;;
71648;SDS011;70112;45.624;11.760;2023-12-28T02:22:46;75.30;;;52.40;;
71648;SDS011;70112;45.624;11.760;2023-12-28T02:25:34;71.40;;;51.00;;
71648;SDS011;70112;45.624;11.760;2023-12-28T02:28:06;74.10;;;51.70;;
71648;SDS011;70112;45.624;11.760;2023-12-28T02:30:36;72.40;;;49.30;;
71648;SDS011;70112;45.624;11.760;2023-12-28T02:33:42;72.30;;;50.00;;
71648;SDS011;70112;45.624;11.760;2023-12-28T02:36:18;74.20;;;50.40;;
71648;SDS011;70112;45.624;11.760;2023-12-28T02:38:58;69.60;;;48.70;;
71648;SDS011;70112;45.624;11.760;2023-12-28T02:44:20;66.80;;;46.80;;
71648;SDS011;70112;45.624;11.760;2023-12-28T02:46:49;63.70;;;45.20;;
71648;SDS011;70112;45.624;11.760;2023-12-28T02:49:20;68.80;;;50.70;;
71648;SDS011;70112;45.624;11.760;2023-12-28T02:51:53;69.40;;;51.00;;
71648;SDS011;70112;45.624;11.760;2023-12-28T02:54:31;75.50;;;50.20;;
71648;SDS011;70112;45.624;11.760;2023-12-28T02:57:02;72.60;;;50.90;;
71648;SDS011;70112;45.624;11.760;2023-12-28T02:59:45;72.40;;;51.30;;
71648;SDS011;70112;45.624;11.760;2023-12-28T03:02:11;71.90;;;51.70;;
71648;SDS011;70112;45.624;11.760;2023-12-28T03:04:36;69.60;;;50.00;;
71648;SDS011;70112;45.624;11.760;2023-12-28T03:07:08;71.30;;;50.60;;
71648;SDS011;70112;45.624;11.760;2023-12-28T03:09:34;67.60;;;49.90;;
71648;SDS011;70112;45.624;11.760;2023-12-28T03:12:10;70.60;;;50.00;;
71648;SDS011;70112;45.624;11.760;2023-12-28T03:14:53;68.50;;;49.00;;
71648;SDS011;70112;45.624;11.760;2023-12-28T03:17:22;71.80;;;50.20;;
71648;SDS011;70112;45.624;11.760;2023-12-28T03:20:14;73.30;;;51.70;;
71648;SDS011;70112;45.624;11.760;2023-12-28T03:23:00;73.30;;;49.50;;
71648;SDS011;70112;45.624;11.760;2023-12-28T03:25:40;70.10;;;48.90;;
71648;SDS011;70112;45.624;11.760;2023-12-28T03:31:07;65.50;;;46.70;;
71648;SDS011;70112;45.624;11.760;2023-12-28T03:36:18;66.30;;;48.10;;
71648;SDS011;70112;45.624;11.760;2023-12-28T03:39:05;65.90;;;49.00;;
71648;SDS011;70112;45.624;11.760;2023-12-28T03:41:41;68.70;;;50.40;;
71648;SDS011;70112;45.624;11.760;2023-12-28T03:44:47;70.10;;;50.50;;
71648;SDS011;70112;45.624;11.760;2023-12-28T03:47:38;70.40;;;49.60;;
71648;SDS011;70112;45.624;11.760;2023-12-28T03:50:06;70.20;;;49.80;;
71648;SDS011;70112;45.624;11.760;2023-12-28T03:52:38;64.50;;;48.10;;
71648;SDS011;70112;45.624;11.760;2023-12-28T03:57:45;67.70;;;49.80;;
71648;SDS011;70112;45.624;11.760;2023-12-28T04:00:17;68.10;;;49.60;;
71648;SDS011;70112;45.624;11.760;2023-12-28T04:02:52;64.50;;;47.50;;
71648;SDS011;70112;45.624;11.760;2023-12-28T04:05:38;65.40;;;49.30;;
71648;SDS011;70112;45.624;11.760;2023-12-28T04:08:13;71.80;;;51.30;;
71648;SDS011;70112;45.624;11.760;2023-12-28T04:11:01;69.40;;;50.10;;
71648;SDS011;70112;45.624;11.760;2023-12-28T04:13:32;66.70;;;49.70;;
71648;SDS011;70112;45.624;11.760;2023-12-28T04:16:29;71.40;;;51.70;;
71648;SDS011;70112;45.624;11.760;2023-12-28T04:19:00;74.30;;;51.60;;
71648;SDS011;70112;45.624;11.760;2023-12-28T04:21:33;72.40;;;50.80;;
71648;SDS011;70112;45.624;11.760;2023-12-28T04:24:01;67.00;;;49.90;;
71648;SDS011;70112;45.624;11.760;2023-12-28T04:29:44;72.50;;;50.80;;
71648;SDS011;70112;45.624;11.760;2023-12-28T04:32:31;76.20;;;52.20;;
71648;SDS011;70112;45.624;11.760;2023-12-28T04:34:59;66.20;;;49.60;;
71648;SDS011;70112;45.624;11.760;2023-12-28T04:37:25;68.60;;;49.10;;
71648;SDS011;70112;45.624;11.760;2023-12-28T04:40:12;69.40;;;49.60;;
71648;SDS011;70112;45.624;11.760;2023-12-28T04:42:40;67.90;;;49.80;;
71648;SDS011;70112;45.624;11.760;2023-12-28T04:45:19;68.20;;;48.70;;
71648;SDS011;70112;45.624;11.760;2023-12-28T04:47:51;64.40;;;48.50;;
71648;SDS011;70112;45.624;11.760;2023-12-28T04:50:19;74.30;;;50.70;;
71648;SDS011;70112;45.624;11.760;2023-12-28T04:52:50;72.10;;;49.90;;
71648;SDS011;70112;45.624;11.760;2023-12-28T04:55:19;69.90;;;50.60;;
71648;SDS011;70112;45.624;11.760;2023-12-28T04:57:46;69.70;;;48.80;;
71648;SDS011;70112;45.624;11.760;2023-12-28T05:09:25;60.60;;;45.00;;
71648;SDS011;70112;45.624;11.760;2023-12-28T05:11:56;64.80;;;47.40;;
71648;SDS011;70112;45.624;11.760;2023-12-28T05:14:25;71.20;;;47.00;;
71648;SDS011;70112;45.624;11.760;2023-12-28T05:17:15;61.00;;;44.20;;
71648;SDS011;70112;45.624;11.760;2023-12-28T05:19:52;62.50;;;45.90;;
71648;SDS011;70112;45.624;11.760;2023-12-28T05:22:20;65.90;;;46.20;;
71648;SDS011;70112;45.624;11.760;2023-12-28T05:24:48;58.60;;;43.10;;
71648;SDS011;70112;45.624;11.760;2023-12-28T05:27:14;61.00;;;44.20;;
71648;SDS011;70112;45.624;11.760;2023-12-28T05:30:00;59.20;;;44.10;;
71648;SDS011;70112;45.624;11.760;2023-12-28T05:33:10;56.00;;;40.30;;
71648;SDS011;70112;45.624;11.760;2023-12-28T05:35:39;60.10;;;41.70;;
71648;SDS011;70112;45.624;11.760;2023-12-28T05:38:05;53.30;;;38.80;;
71648;SDS011;70112;45.624;11.760;2023-12-28T05:40:31;54.70;;;40.90;;
71648;SDS011;70112;45.624;11.760;2023-12-28T05:42:56;51.70;;;38.60;;
71648;SDS011;70112;45.624;11.760;2023-12-28T05:45:24;56.80;;;39.60;;
71648;SDS011;70112;45.624;11.760;2023-12-28T05:47:50;50.40;;;38.00;;
71648;SDS011;70112;45.624;11.760;2023-12-28T05:50:25;55.20;;;39.00;;
71648;SDS011;70112;45.624;11.760;2023-12-28T05:52:59;54.60;;;39.70;;
71648;SDS011;70112;45.624;11.760;2023-12-28T05:55:37;51.30;;;38.50;;
71648;SDS011;70112;45.624;11.760;2023-12-28T05:58:24;51.50;;;38.10;;
71648;SDS011;70112;45.624;11.760;2023-12-28T06:00:52;54.70;;;38.00;;
71648;SDS011;70112;45.624;11.760;2023-12-28T06:03:22;56.00;;;40.20;;
71648;SDS011;70112;45.624;11.760;2023-12-28T06:08:26;52.50;;;37.30;;
71648;SDS011;70112;45.624;11.760;2023-12-28T06:10:52;53.30;;;39.20;;
71648;SDS011;70112;45.624;11.760;2023-12-28T06:13:20;56.80;;;40.60;;
71648;SDS011;70112;45.624;11.760;2023-12-28T06:16:09;58.90;;;41.10;;
71648;SDS011;70112;45.624;11.760;2023-12-28T06:18:45;55.30;;;40.40;;
71648;SDS011;70112;45.624;11.760;2023-12-28T06:21:16;54.30;;;39.90;;
71648;SDS011;70112;45.624;11.760;2023-12-28T06:24:03;53.10;;;39.80;;
71648;SDS011;70112;45.624;11.760;2023-12-28T06:26:29;54.30;;;40.60;;
71648;SDS011;70112;45.624;11.760;2023-12-28T06:29:01;51.90;;;39.60;;
71648;SDS011;70112;45.624;11.760;2023-12-28T06:31:29;54.30;;;38.90;;
71648;SDS011;70112;45.624;11.760;2023-12-28T06:34:10;52.90;;;38.50;;
71648;SDS011;70112;45.624;11.760;2023-12-28T06:36:35;51.30;;;35.50;;
71648;SDS011;70112;45.624;11.760;2023-12-28T06:39:04;52.20;;;33.30;;
71648;SDS011;70112;45.624;11.760;2023-12-28T06:41:36;54.10;;;35.90;;
71648;SDS011;70112;45.624;11.760;2023-12-28T06:44:11;51.30;;;35.70;;
71648;SDS011;70112;45.624;11.760;2023-12-28T06:46:39;53.20;;;36.00;;
71648;SDS011;70112;45.624;11.760;2023-12-28T06:49:07;47.10;;;35.20;;
71648;SDS011;70112;45.624;11.760;2023-12-28T06:51:36;48.40;;;34.50;;
71648;SDS011;70112;45.624;11.760;2023-12-28T06:54:05;44.00;;;34.10;;
71648;SDS011;70112;45.624;11.760;2023-12-28T06:56:33;48.90;;;34.20;;
71648;SDS011;70112;45.624;11.760;2023-12-28T06:58:59;47.30;;;34.20;;
71648;SDS011;70112;45.624;11.760;2023-12-28T07:01:30;45.50;;;32.70;;
71648;SDS011;70112;45.624;11.760;2023-12-28T07:04:01;50.10;;;34.40;;
71648;SDS011;70112;45.624;11.760;2023-12-28T07:06:26;52.30;;;36.20;;
71648;SDS011;70112;45.624;11.760;2023-12-28T07:09:36;54.60;;;40.00;;
71648;SDS011;70112;45.624;11.760;2023-12-28T07:12:03;48.00;;;32.80;;
71648;SDS011;70112;45.624;11.760;2023-12-28T07:14:29;43.50;;;32.70;;
71648;SDS011;70112;45.624;11.760;2023-12-28T07:16:57;46.00;;;33.20;;
71648;SDS011;70112;45.624;11.760;2023-12-28T07:19:23;47.30;;;34.20;;
71648;SDS011;70112;45.624;11.760;2023-12-28T07:21:49;51.70;;;35.90;;
71648;SDS011;70112;45.624;11.760;2023-12-28T07:24:18;48.70;;;34.70;;
71648;SDS011;70112;45.624;11.760;2023-12-28T07:26:44;47.50;;;35.00;;
71648;SDS011;70112;45.624;11.760;2023-12-28T07:29:09;51.70;;;36.80;;
71648;SDS011;70112;45.624;11.760;2023-12-28T07:31:55;45.10;;;33.40;;
71648;SDS011;70112;45.624;11.760;2023-12-28T07:34:24;46.30;;;34.30;;
71648;SDS011;70112;45.624;11.760;2023-12-28T07:36:50;47.90;;;34.70;;
71648;SDS011;70112;45.624;11.760;2023-12-28T07:39:15;50.90;;;34.00;;
71648;SDS011;70112;45.624;11.760;2023-12-28T07:41:41;50.00;;;35.70;;
71648;SDS011;70112;45.624;11.760;2023-12-28T07:44:08;48.80;;;36.60;;
71648;SDS011;70112;45.624;11.760;2023-12-28T07:46:33;49.80;;;36.40;;
71648;SDS011;70112;45.624;11.760;2023-12-28T07:48:59;45.30;;;34.10;;
71648;SDS011;70112;45.624;11.760;2023-12-28T07:51:25;47.70;;;36.50;;
71648;SDS011;70112;45.624;11.760;2023-12-28T07:53:50;47.90;;;36.10;;
71648;SDS011;70112;45.624;11.760;2023-12-28T07:56:16;44.80;;;35.60;;
71648;SDS011;70112;45.624;11.760;2023-12-28T07:58:42;47.50;;;35.60;;
71648;SDS011;70112;45.624;11.760;2023-12-28T08:01:10;47.20;;;35.90;;
71648;SDS011;70112;45.624;11.760;2023-12-28T08:03:39;45.60;;;35.20;;
71648;SDS011;70112;45.624;11.760;2023-12-28T08:06:05;50.60;;;37.30;;
71648;SDS011;70112;45.624;11.760;2023-12-28T08:08:31;48.20;;;36.90;;
71648;SDS011;70112;45.624;11.760;2023-12-28T08:10:57;46.80;;;35.20;;
71648;SDS011;70112;45.624;11.760;2023-12-28T08:13:23;48.00;;;36.40;;
71648;SDS011;70112;45.624;11.760;2023-12-28T08:15:49;59.50;;;37.90;;
71648;SDS011;70112;45.624;11.760;2023-12-28T08:18:14;57.00;;;38.00;;
71648;SDS011;70112;45.624;11.760;2023-12-28T08:20:40;48.90;;;36.70;;
71648;SDS011;70112;45.624;11.760;2023-12-28T08:23:06;52.60;;;38.30;;
71648;SDS011;70112;45.624;11.760;2023-12-28T08:25:32;50.90;;;37.70;;
71648;SDS011;70112;45.624;11.760;2023-12-28T08:27:58;48.40;;;37.00;;
71648;SDS011;70112;45.624;11.760;2023-12-28T08:30:26;49.80;;;37.70;;
71648;SDS011;70112;45.624;11.760;2023-12-28T08:33:00;53.30;;;37.70;;
71648;SDS011;70112;45.624;11.760;2023-12-28T08:37:52;51.50;;;35.00;;
71648;SDS011;70112;45.624;11.760;2023-12-28T08:40:18;47.90;;;36.80;;
71648;SDS011;70112;45.624;11.760;2023-12-28T08:42:43;49.60;;;37.30;;
71648;SDS011;70112;45.624;11.760;2023-12-28T08:45:10;50.80;;;37.40;;
71648;SDS011;70112;45.624;11.760;2023-12-28T08:47:36;47.80;;;37.20;;
71648;SDS011;70112;45.624;11.760;2023-12-28T08:50:06;59.30;;;38.60;;
71648;SDS011;70112;45.624;11.760;2023-12-28T08:52:34;48.20;;;37.10;;
71648;SDS011;70112;45.624;11.760;2023-12-28T08:55:00;52.60;;;37.70;;
71648;SDS011;70112;45.624;11.760;2023-12-28T08:57:26;47.80;;;36.80;;
71648;SDS011;70112;45.624;11.760;2023-12-28T08:59:51;51.10;;;37.00;;
71648;SDS011;70112;45.624;11.760;2023-12-28T09:02:22;56.70;;;39.20;;
71648;SDS011;70112;45.624;11.760;2023-12-28T09:05:00;51.90;;;36.30;;
71648;SDS011;70112;45.624;11.760;2023-12-28T09:07:26;56.40;;;38.50;;
71648;SDS011;70112;45.624;11.760;2023-12-28T09:09:52;52.50;;;37.80;;
71648;SDS011;70112;45.624;11.760;2023-12-28T09:12:18;53.20;;;35.90;;
71648;SDS011;70112;45.624;11.760;2023-12-28T09:14:43;52.90;;;36.50;;
71648;SDS011;70112;45.624;11.760;2023-12-28T09:19:46;48.60;;;33.80;;
71648;SDS011;70112;45.624;11.760;2023-12-28T09:22:12;46.70;;;34.40;;
71648;SDS011;70112;45.624;11.760;2023-12-28T09:24:37;53.30;;;36.10;;
71648;SDS011;70112;45.624;11.760;2023-12-28T09:27:03;53.70;;;36.10;;
71648;SDS011;70112;45.624;11.760;2023-12-28T09:29:28;52.70;;;36.40;;
71648;SDS011;70112;45.624;11.760;2023-12-28T09:31:54;44.30;;;34.60;;
71648;SDS011;70112;45.624;11.760;2023-12-28T09:34:40;45.20;;;34.00;;
71648;SDS011;70112;45.624;11.760;2023-12-28T09:37:15;48.80;;;33.40;;
71648;SDS011;70112;45.624;11.760;2023-12-28T09:39:41;47.60;;;32.70;;
71648;SDS011;70112;45.624;11.760;2023-12-28T09:42:22;44.70;;;33.20;;
71648;SDS011;70112;45.624;11.760;2023-12-28T09:44:55;45.20;;;32.30;;
71648;SDS011;70112;45.624;11.760;2023-12-28T09:47:21;45.20;;;33.60;;
71648;SDS011;70112;45.624;11.760;2023-12-28T09:49:47;45.30;;;32.00;;
71648;SDS011;70112;45.624;11.760;2023-12-28T09:52:13;46.10;;;33.60;;
71648;SDS011;70112;45.624;11.760;2023-12-28T09:54:38;39.10;;;31.10;;
71648;SDS011;70112;45.624;11.760;2023-12-28T09:57:04;41.30;;;30.30;;
71648;SDS011;70112;45.624;11.760;2023-12-28T09:59:32;38.80;;;28.90;;
71648;SDS011;70112;45.624;11.760;2023-12-28T10:02:00;40.50;;;29.10;;
71648;SDS011;70112;45.624;11.760;2023-12-28T10:04:28;40.20;;;29.60;;
71648;SDS011;70112;45.624;11.760;2023-12-28T10:06:54;39.50;;;29.80;;
71648;SDS011;70112;45.624;11.760;2023-12-28T10:09:23;42.60;;;30.40;;
71648;SDS011;70112;45.624;11.760;2023-12-28T10:11:52;33.60;;;27.90;;
71648;SDS011;70112;45.624;11.760;2023-12-28T10:14:19;40.70;;;31.10;;
71648;SDS011;70112;45.624;11.760;2023-12-28T10:16:46;42.40;;;31.10;;
71648;SDS011;70112;45.624;11.760;2023-12-28T10:19:11;42.70;;;30.00;;
71648;SDS011;70112;45.624;11.760;2023-12-28T10:21:39;40.50;;;29.70;;
71648;SDS011;70112;45.624;11.760;2023-12-28T10:24:05;38.40;;;28.70;;
71648;SDS011;70112;45.624;11.760;2023-12-28T10:26:31;38.30;;;28.60;;
71648;SDS011;70112;45.624;11.760;2023-12-28T10:29:00;32.30;;;23.20;;
71648;SDS011;70112;45.624;11.760;2023-12-28T10:31:27;27.80;;;23.20;;
71648;SDS011;70112;45.624;11.760;2023-12-28T10:33:55;37.40;;;26.70;;
71648;SDS011;70112;45.624;11.760;2023-12-28T10:36:23;34.50;;;27.20;;
71648;SDS011;70112;45.624;11.760;2023-12-28T10:38:51;37.90;;;28.10;;
71648;SDS011;70112;45.624;11.760;2023-12-28T10:41:19;38.80;;;29.00;;
71648;SDS011;70112;45.624;11.760;2023-12-28T10:43:46;40.10;;;29.30;;
71648;SDS011;70112;45.624;11.760;2023-12-28T10:46:26;40.40;;;29.40;;
71648;SDS011;70112;45.624;11.760;2023-12-28T10:49:10;35.50;;;27.00;;
71648;SDS011;70112;45.624;11.760;2023-12-28T10:51:41;38.60;;;28.40;;
71648;SDS011;70112;45.624;11.760;2023-12-28T10:54:28;37.10;;;26.60;;
71648;SDS011;70112;45.624;11.760;2023-12-28T10:57:01;38.00;;;27.90;;
71648;SDS011;70112;45.624;11.760;2023-12-28T11:02:01;39.90;;;27.80;;
71648;SDS011;70112;45.624;11.760;2023-12-28T11:04:48;38.30;;;28.70;;
71648;SDS011;70112;45.624;11.760;2023-12-28T11:07:19;42.20;;;30.80;;
71648;SDS011;70112;45.624;11.760;2023-12-28T11:09:47;45.60;;;30.50;;
71648;SDS011;70112;45.624;11.760;2023-12-28T11:12:16;42.30;;;30.00;;
71648;SDS011;70112;45.624;11.760;2023-12-28T11:14:47;40.20;;;28.50;;
71648;SDS011;70112;45.624;11.760;2023-12-28T11:17:15;37.40;;;28.60;;
71648;SDS011;70112;45.624;11.760;2023-12-28T11:19:42;40.50;;;29.60;;
71648;SDS011;70112;45.624;11.760;2023-12-28T11:22:08;40.00;;;28.40;;
71648;SDS011;70112;45.624;11.760;2023-12-28T11:24:34;35.90;;;28.20;;
71648;SDS011;70112;45.624;11.760;2023-12-28T11:27:00;36.60;;;28.00;;
71648;SDS011;70112;45.624;11.760;2023-12-28T11:29:29;35.10;;;27.00;;
71648;SDS011;70112;45.624;11.760;2023-12-28T11:32:00;38.50;;;27.10;;
71648;SDS011;70112;45.624;11.760;2023-12-28T11:34:30;38.60;;;27.30;;
71648;SDS011;70112;45.624;11.760;2023-12-28T11:37:06;34.60;;;25.80;;
71648;SDS011;70112;45.624;11.760;2023-12-28T11:39:36;32.30;;;25.20;;
71648;SDS011;70112;45.624;11.760;2023-12-28T11:42:07;35.80;;;25.90;;
71648;SDS011;70112;45.624;11.760;2023-12-28T11:47:14;36.40;;;27.00;;
71648;SDS011;70112;45.624;11.760;2023-12-28T11:49:42;36.60;;;27.30;;
71648;SDS011;70112;45.624;11.760;2023-12-28T11:52:26;37.00;;;27.10;;
71648;SDS011;70112;45.624;11.760;2023-12-28T11:54:53;32.40;;;27.20;;
71648;SDS011;70112;45.624;11.760;2023-12-28T11:57:19;35.20;;;26.20;;
71648;SDS011;70112;45.624;11.760;2023-12-28T11:59:45;33.00;;;25.30;;
71648;SDS011;70112;45.624;11.760;2023-12-28T12:02:12;32.40;;;22.30;;
71648;SDS011;70112;45.624;11.760;2023-12-28T12:04:39;31.20;;;22.60;;
71648;SDS011;70112;45.624;11.760;2023-12-28T12:07:04;32.70;;;22.70;;
71648;SDS011;70112;45.624;11.760;2023-12-28T12:09:30;29.60;;;22.10;;
71648;SDS011;70112;45.624;11.760;2023-12-28T12:12:03;34.00;;;21.90;;
71648;SDS011;70112;45.624;11.760;2023-12-28T12:14:30;28.30;;;21.60;;
71648;SDS011;70112;45.624;11.760;2023-12-28T12:16:56;28.70;;;22.40;;
71648;SDS011;70112;45.624;11.760;2023-12-28T12:19:24;30.10;;;23.20;;
71648;SDS011;70112;45.624;11.760;2023-12-28T12:21:54;30.20;;;22.80;;
71648;SDS011;70112;45.624;11.760;2023-12-28T12:24:21;29.40;;;21.70;;
71648;SDS011;70112;45.624;11.760;2023-12-28T12:26:47;27.60;;;21.60;;
71648;SDS011;70112;45.624;11.760;2023-12-28T12:29:13;29.90;;;22.10;;
71648;SDS011;70112;45.624;11.760;2023-12-28T12:31:43;30.00;;;22.00;;
71648;SDS011;70112;45.624;11.760;2023-12-28T12:34:16;31.30;;;22.90;;
71648;SDS011;70112;45.624;11.760;2023-12-28T12:36:42;38.50;;;28.60;;
71648;SDS011;70112;45.624;11.760;2023-12-28T12:39:10;45.40;;;31.00;;
71648;SDS011;70112;45.624;11.760;2023-12-28T12:41:37;33.40;;;26.60;;
71648;SDS011;70112;45.624;11.760;2023-12-28T12:44:03;32.10;;;24.70;;
71648;SDS011;70112;45.624;11.760;2023-12-28T12:46:30;31.50;;;22.90;;
71648;SDS011;70112;45.624;11.760;2023-12-28T12:48:57;30.50;;;23.60;;
71648;SDS011;70112;45.624;11.760;2023-12-28T12:51:24;32.00;;;22.80;;
71648;SDS011;70112;45.624;11.760;2023-12-28T12:53:50;30.30;;;23.30;;
71648;SDS011;70112;45.624;11.760;2023-12-28T12:56:21;36.50;;;25.10;;
71648;SDS011;70112;45.624;11.760;2023-12-28T12:58:47;32.40;;;24.60;;
71648;SDS011;70112;45.624;11.760;2023-12-28T13:01:12;30.90;;;23.90;;
71648;SDS011;70112;45.624;11.760;2023-12-28T13:03:38;33.80;;;23.30;;
71648;SDS011;70112;45.624;11.760;2023-12-28T13:06:05;33.10;;;26.40;;
71648;SDS011;70112;45.624;11.760;2023-12-28T13:08:31;30.40;;;23.00;;
71648;SDS011;70112;45.624;11.760;2023-12-28T13:10:56;33.60;;;25.10;;
71648;SDS011;70112;45.624;11.760;2023-12-28T13:13:22;38.30;;;26.10;;
71648;SDS011;70112;45.624;11.760;2023-12-28T13:15:47;33.30;;;25.00;;
71648;SDS011;70112;45.624;11.760;2023-12-28T13:18:13;30.70;;;24.10;;
71648;SDS011;70112;45.624;11.760;2023-12-28T13:20:38;34.80;;;25.70;;
71648;SDS011;70112;45.624;11.760;2023-12-28T13:23:04;32.60;;;24.60;;
71648;SDS011;70112;45.624;11.760;2023-12-28T13:25:30;31.40;;;25.00;;
71648;SDS011;70112;45.624;11.760;2023-12-28T13:27:56;30.10;;;24.10;;
71648;SDS011;70112;45.624;11.760;2023-12-28T13:30:21;32.60;;;24.60;;
71648;SDS011;70112;45.624;11.760;2023-12-28T13:32:48;31.30;;;24.70;;
71648;SDS011;70112;45.624;11.760;2023-12-28T13:35:13;32.90;;;24.70;;
71648;SDS011;70112;45.624;11.760;2023-12-28T13:37:39;37.30;;;27.00;;
71648;SDS011;70112;45.624;11.760;2023-12-28T13:40:05;35.70;;;26.50;;
71648;SDS011;70112;45.624;11.760;2023-12-28T13:42:32;37.40;;;26.80;;
71648;SDS011;70112;45.624;11.760;2023-12-28T13:44:57;32.40;;;24.80;;
71648;SDS011;70112;45.624;11.760;2023-12-28T13:47:23;38.10;;;27.20;;
71648;SDS011;70112;45.624;11.760;2023-12-28T13:49:48;33.70;;;25.20;;
71648;SDS011;70112;45.624;11.760;2023-12-28T13:52:14;33.20;;;24.90;;
71648;SDS011;70112;45.624;11.760;2023-12-28T13:54:39;30.30;;;23.80;;
71648;SDS011;70112;45.624;11.760;2023-12-28T13:57:05;34.60;;;25.50;;
71648;SDS011;70112;45.624;11.760;2023-12-28T13:59:31;39.80;;;27.30;;
71648;SDS011;70112;45.624;11.760;2023-12-28T14:01:57;38.40;;;28.30;;
71648;SDS011;70112;45.624;11.760;2023-12-28T14:04:24;39.20;;;28.80;;
71648;SDS011;70112;45.624;11.760;2023-12-28T14:06:50;35.60;;;26.80;;
71648;SDS011;70112;45.624;11.760;2023-12-28T14:09:18;37.80;;;27.60;;
71648;SDS011;70112;45.624;11.760;2023-12-28T14:11:46;37.60;;;27.30;;
71648;SDS011;70112;45.624;11.760;2023-12-28T14:14:12;35.30;;;24.70;;
71648;SDS011;70112;45.624;11.760;2023-12-28T14:16:39;41.10;;;27.80;;
71648;SDS011;70112;45.624;11.760;2023-12-28T14:19:04;34.30;;;26.70;;
71648;SDS011;70112;45.624;11.760;2023-12-28T14:21:36;35.00;;;26.00;;
71648;SDS011;70112;45.624;11.760;2023-12-28T14:24:03;37.00;;;27.10;;
71648;SDS011;70112;45.624;11.760;2023-12-28T14:26:32;38.40;;;28.50;;
71648;SDS011;70112;45.624;11.760;2023-12-28T14:29:01;36.50;;;27.30;;
71648;SDS011;70112;45.624;11.760;2023-12-28T14:31:31;31.20;;;23.60;;
71648;SDS011;70112;45.624;11.760;2023-12-28T14:33:57;32.70;;;24.50;;
71648;SDS011;70112;45.624;11.760;2023-12-28T14:36:32;34.00;;;24.20;;
71648;SDS011;70112;45.624;11.760;2023-12-28T14:39:01;39.40;;;26.50;;
71648;SDS011;70112;45.624;11.760;2023-12-28T14:41:29;35.90;;;27.60;;
71648;SDS011;70112;45.624;11.760;2023-12-28T14:43:55;39.80;;;27.70;;
71648;SDS011;70112;45.624;11.760;2023-12-28T14:46:25;38.20;;;28.10;;
71648;SDS011;70112;45.624;11.760;2023-12-28T14:48:51;36.70;;;28.00;;
71648;SDS011;70112;45.624;11.760;2023-12-28T14:51:17;36.60;;;27.40;;
71648;SDS011;70112;45.624;11.760;2023-12-28T14:53:43;49.70;;;30.40;;
71648;SDS011;70112;45.624;11.760;2023-12-28T14:56:09;43.40;;;31.80;;
71648;SDS011;70112;45.624;11.760;2023-12-28T14:58:39;39.30;;;30.10;;
71648;SDS011;70112;45.624;11.760;2023-12-28T15:01:13;38.20;;;28.30;;
71648;SDS011;70112;45.624;11.760;2023-12-28T15:03:42;44.20;;;29.00;;
71648;SDS011;70112;45.624;11.760;2023-12-28T15:06:08;38.80;;;28.70;;
71648;SDS011;70112;45.624;11.760;2023-12-28T15:08:35;40.20;;;28.10;;